Main page
METAR-TAF:

Airports :

Belgrade, Serbia

Belgrade Nikola Tesla Airport

latitude: 44-49N, longitude: 020-17E, elevation: 96 m

Current weather observation

The report was made 38 minutes ago, at 01:30 UTC
Calm wind
Temperature 16°C
Humidity 94%
Pressure 1020 hPa
Visibility 10 km or more
no clouds below 1500 m and no cumulonimbus

METAR: LYBE 280130Z 00000KT CAVOK 16/15 Q1020 NOSIG

Time: 04:08 (02:08 UTC)

Forecast

The report was made 3 hours and 8 minutes ago, at 23:00 UTC
Forecast valid from 28 at 00 UTC to 28 at 24 UTC
Wind 5 kt from the East
Visibility 10 km or more
no clouds below 1500 m and no cumulonimbus

TAF: LYBE 272300Z 2800/2824 10005KT CAVOK TX30/2813Z TN16/2803Z

METAR-TAF

Weather observations and forecasts of more than 4000 airports (METAR and TAF reports).

The available stations are represented by yellow and red dots on the map.

Hover mouse over dot to see the name of the station.

Then click to see weather observations and forecasts.

To change the map : click on the green buttons with a black cross to zoom in, on the green button with a dash to zoom out, or on the green arrows for adjacent maps.


METAR-TAF: